Time;durP1;ratioP1;P1;durP2;ratioP2;P2;SDS_P1;SDS_P2;PMS_P1;PMS_P2;Temp;Humidity;BMP_temperature;BMP_pressure;BME280_temperature;BME280_humidity;BME280_pressure;Samples;Min_cycle;Max_cycle;Signal;HPM_P1;HPM_P2
2022/05/19 00:02:01;;;;;;;3.45;2.20;;;15.20;99.90;;;;;;5074293;28;20174;-76
2022/05/19 00:04:27;;;;;;;2.92;2.63;;;15.20;99.90;;;;;;5080243;28;20214;-76
2022/05/19 00:06:53;;;;;;;2.92;2.38;;;15.10;99.90;;;;;;5079052;28;20228;-76
2022/05/19 00:09:20;;;;;;;2.70;2.50;;;15.10;99.90;;;;;;5094997;28;20199;-76
2022/05/19 00:11:46;;;;;;;4.47;2.33;;;15.00;99.90;;;;;;5088549;28;20236;-76
2022/05/19 00:14:13;;;;;;;3.47;2.25;;;15.00;99.90;;;;;;5073528;28;20178;-76
2022/05/19 00:16:39;;;;;;;2.25;2.15;;;14.90;99.90;;;;;;5076416;28;20258;-77
2022/05/19 00:19:05;;;;;;;2.20;2.10;;;14.90;99.90;;;;;;5092431;28;20198;-76
2022/05/19 00:21:31;;;;;;;4.95;2.35;;;14.90;99.90;;;;;;5081414;28;20191;-76
2022/05/19 00:23:56;;;;;;;2.20;2.10;;;14.80;99.90;;;;;;5074361;28;20168;-78
2022/05/19 00:26:22;;;;;;;3.53;2.25;;;14.80;99.90;;;;;;5073395;28;20424;-77
2022/05/19 00:28:48;;;;;;;2.00;1.90;;;14.80;99.90;;;;;;5074214;28;20298;-77
2022/05/19 00:31:14;;;;;;;2.25;2.05;;;14.70;99.90;;;;;;5074259;28;20626;-75
2022/05/19 00:33:40;;;;;;;13.88;2.60;;;14.70;99.90;;;;;;5090184;28;20189;-75
2022/05/19 00:36:11;;;;;;;2.45;2.25;;;14.70;99.90;;;;;;5094471;28;20257;-76
2022/05/19 00:38:38;;;;;;;2.72;2.20;;;14.60;99.90;;;;;;5077773;28;20757;-76
2022/05/19 00:41:05;;;;;;;2.67;2.20;;;14.60;99.90;;;;;;5074047;28;20167;-76
2022/05/19 00:43:35;;;;;;;2.97;2.78;;;14.50;99.90;;;;;;5073828;28;20171;-75
2022/05/19 00:46:06;;;;;;;3.63;2.28;;;14.50;99.90;;;;;;5074503;28;20531;-74
2022/05/19 00:48:51;;;;;;;2.63;2.13;;;14.40;99.90;;;;;;5091619;28;20661;-74
2022/05/19 00:51:20;;;;;;;2.35;2.15;;;14.40;99.90;;;;;;5094410;28;20182;-75
2022/05/19 00:53:51;;;;;;;3.05;2.22;;;14.40;99.90;;;;;;5094226;28;20224;-75
2022/05/19 00:56:39;;;;;;;2.22;1.85;;;14.30;99.90;;;;;;5083206;28;20185;-75
2022/05/19 00:59:18;;;;;;;2.92;2.33;;;14.30;99.90;;;;;;5074238;28;20641;-75
2022/05/19 01:01:44;;;;;;;5.28;2.15;;;14.20;99.90;;;;;;5078227;28;20177;-75
2022/05/19 01:04:39;;;;;;;2.45;2.25;;;14.20;99.90;;;;;;5094278;28;20195;-74
2022/05/19 01:07:09;;;;;;;2.90;2.20;;;14.10;99.90;;;;;;5084195;28;20179;-78
2022/05/19 01:09:37;;;;;;;2.00;1.90;;;14.10;99.90;;;;;;5105758;28;20300;-78
2022/05/19 01:12:04;;;;;;;1.95;1.85;;;14.10;99.90;;;;;;5118825;28;20237;-77
2022/05/19 01:14:31;;;;;;;3.65;2.65;;;14.00;99.90;;;;;;5103127;28;20185;-77
2022/05/19 01:16:57;;;;;;;4.85;2.05;;;14.00;99.90;;;;;;5076030;28;20232;-76
2022/05/19 01:19:31;;;;;;;2.33;2.22;;;13.90;99.90;;;;;;5073342;28;20317;-77
2022/05/19 01:22:04;;;;;;;2.40;2.20;;;13.90;99.90;;;;;;5071829;28;20690;-76
2022/05/19 01:24:58;;;;;;;2.28;2.10;;;13.90;99.90;;;;;;5079418;28;20183;-76
2022/05/19 01:27:24;;;;;;;2.60;2.40;;;13.90;99.90;;;;;;5065126;28;20266;-76
2022/05/19 01:29:50;;;;;;;2.47;2.13;;;13.80;99.90;;;;;;5071821;28;20313;-75
2022/05/19 01:32:28;;;;;;;2.30;2.10;;;13.80;99.90;;;;;;5072988;28;20608;-75
2022/05/19 01:34:54;;;;;;;2.60;2.40;;;13.70;99.90;;;;;;5073198;28;20183;-75
2022/05/19 01:37:20;;;;;;;2.08;1.95;;;13.70;99.90;;;;;;5073161;28;20164;-75
2022/05/19 01:39:50;;;;;;;3.90;2.35;;;13.70;99.90;;;;;;5092399;28;20183;-74
2022/05/19 01:42:30;;;;;;;3.28;2.30;;;13.70;99.90;;;;;;5082352;28;20187;-75
2022/05/19 01:45:08;;;;;;;2.95;2.67;;;13.60;99.90;;;;;;5071877;28;20179;-76
2022/05/19 01:47:56;;;;;;;2.78;2.58;;;13.60;99.90;;;;;;5073195;28;20194;-75
2022/05/19 01:50:29;;;;;;;2.55;2.33;;;13.50;99.90;;;;;;5072657;28;20206;-75
2022/05/19 01:53:11;;;;;;;2.30;2.10;;;13.50;99.90;;;;;;5078749;28;20514;-75
2022/05/19 01:55:48;;;;;;;3.10;2.45;;;13.50;99.90;;;;;;5093293;28;20170;-75
2022/05/19 01:58:16;;;;;;;2.70;2.47;;;13.50;99.90;;;;;;5092954;28;20194;-76
2022/05/19 02:00:43;;;;;;;2.97;2.78;;;13.40;99.90;;;;;;5073471;28;20183;-77
2022/05/19 02:03:14;;;;;;;4.53;2.60;;;13.40;99.90;;;;;;5072520;28;20167;-76
2022/05/19 02:05:46;;;;;;;4.47;2.97;;;13.30;99.90;;;;;;5072585;28;20180;-76
2022/05/19 02:08:17;;;;;;;2.60;1.98;;;13.30;99.90;;;;;;5076332;28;20203;-76
2022/05/19 02:10:48;;;;;;;2.50;2.30;;;13.20;99.90;;;;;;5073175;28;20602;-77
2022/05/19 02:13:15;;;;;;;2.90;2.42;;;13.20;99.90;;;;;;5076480;28;20178;-78
2022/05/19 02:15:45;;;;;;;4.75;2.63;;;13.10;99.90;;;;;;5071983;28;20183;-77
2022/05/19 02:18:12;;;;;;;3.40;2.45;;;13.10;99.90;;;;;;5074810;28;20616;-76
2022/05/19 02:20:41;;;;;;;2.55;2.35;;;13.00;99.90;;;;;;5088037;28;20175;-76
2022/05/19 02:23:09;;;;;;;2.40;2.20;;;13.00;99.90;;;;;;5083475;28;20178;-77
2022/05/19 02:25:40;;;;;;;2.50;2.30;;;12.90;99.90;;;;;;5075607;28;20215;-77
2022/05/19 02:28:12;;;;;;;2.67;2.47;;;12.90;99.90;;;;;;5072215;28;20745;-77
2022/05/19 02:30:39;;;;;;;3.35;2.28;;;12.90;99.90;;;;;;5073023;28;20214;-77
2022/05/19 02:33:06;;;;;;;5.10;2.40;;;12.90;99.90;;;;;;5074414;28;20180;-77
2022/05/19 02:35:32;;;;;;;3.08;2.72;;;12.90;99.90;;;;;;5072761;28;20561;-76
2022/05/19 02:37:59;;;;;;;2.42;2.00;;;12.80;99.90;;;;;;5085345;28;20194;-77
2022/05/19 02:40:29;;;;;;;4.68;2.40;;;12.80;99.90;;;;;;5091053;28;20191;-77
2022/05/19 02:42:54;;;;;;;3.83;2.50;;;12.70;99.90;;;;;;5076318;28;20274;-77
2022/05/19 02:45:21;;;;;;;3.03;2.20;;;12.70;99.90;;;;;;5076555;28;20669;-78
2022/05/19 02:47:48;;;;;;;3.70;2.80;;;12.60;99.90;;;;;;5076477;28;20336;-77
2022/05/19 02:50:14;;;;;;;2.78;2.58;;;12.60;99.90;;;;;;5079889;28;20340;-77
2022/05/19 02:52:40;;;;;;;3.35;2.70;;;12.70;99.90;;;;;;5093073;28;20189;-76
2022/05/19 02:55:06;;;;;;;3.90;2.80;;;12.60;99.90;;;;;;5090899;28;20246;-76
2022/05/19 02:57:32;;;;;;;4.18;2.72;;;12.70;99.90;;;;;;5092670;28;20215;-76
2022/05/19 02:59:58;;;;;;;2.80;2.47;;;12.70;99.90;;;;;;5080867;28;20191;-76
2022/05/19 03:02:24;;;;;;;4.03;2.83;;;12.70;99.90;;;;;;5072064;28;20528;-75
2022/05/19 03:04:50;;;;;;;2.28;2.17;;;12.80;99.90;;;;;;5071781;28;20176;-76
2022/05/19 03:07:16;;;;;;;3.13;2.90;;;12.80;99.90;;;;;;5084325;28;20543;-76
2022/05/19 03:09:42;;;;;;;4.45;2.85;;;12.80;99.90;;;;;;5074584;28;20206;-77
2022/05/19 03:12:12;;;;;;;3.80;2.88;;;12.70;99.90;;;;;;5071670;28;20626;-75
2022/05/19 03:14:37;;;;;;;3.88;3.13;;;12.80;99.90;;;;;;5071955;28;20184;-74
2022/05/19 03:17:08;;;;;;;3.20;2.75;;;12.70;99.90;;;;;;5086155;28;20186;-75
2022/05/19 03:19:35;;;;;;;3.00;2.80;;;12.70;99.90;;;;;;5071701;28;20226;-77
2022/05/19 03:22:02;;;;;;;2.80;2.63;;;12.60;99.90;;;;;;5078991;28;20175;-77
2022/05/19 03:24:28;;;;;;;2.90;2.58;;;12.60;99.90;;;;;;5091444;28;20543;-77
2022/05/19 03:26:54;;;;;;;4.88;3.30;;;12.70;99.90;;;;;;5084488;28;20183;-76
2022/05/19 03:29:19;;;;;;;3.42;3.10;;;12.70;99.90;;;;;;5091301;28;20214;-76
2022/05/19 03:31:45;;;;;;;3.17;2.90;;;12.60;99.90;;;;;;5090921;28;20171;-77
2022/05/19 03:34:11;;;;;;;3.30;2.65;;;12.50;99.90;;;;;;5085727;28;20258;-78
2022/05/19 03:36:37;;;;;;;2.75;2.55;;;12.40;99.90;;;;;;5091211;28;20232;-77
2022/05/19 03:39:03;;;;;;;4.72;2.97;;;12.40;99.90;;;;;;5087042;28;20198;-78
2022/05/19 03:41:29;;;;;;;3.00;2.78;;;12.50;99.90;;;;;;5087907;28;20250;-75
2022/05/19 03:43:55;;;;;;;3.95;2.95;;;12.40;99.90;;;;;;5087659;28;20270;-78
2022/05/19 03:46:21;;;;;;;5.20;3.50;;;12.40;99.90;;;;;;5093764;28;20535;-75
2022/05/19 03:48:47;;;;;;;3.55;2.97;;;12.50;99.90;;;;;;5100844;28;20201;-75
2022/05/19 03:51:22;;;;;;;5.85;3.45;;;12.40;99.90;;;;;;5105166;28;20197;-74
2022/05/19 03:53:48;;;;;;;3.40;3.10;;;12.40;99.90;;;;;;5097470;28;20204;-75
2022/05/19 03:56:13;;;;;;;3.90;3.60;;;12.40;99.90;;;;;;5088046;28;20178;-76
2022/05/19 03:58:39;;;;;;;7.05;2.97;;;12.40;99.90;;;;;;5097301;28;20232;-75
2022/05/19 04:01:06;;;;;;;4.28;3.03;;;12.30;99.90;;;;;;5106675;28;20189;-76
2022/05/19 04:03:31;;;;;;;3.28;3.08;;;12.40;99.90;;;;;;5105867;28;20248;-74
2022/05/19 04:05:57;;;;;;;3.58;3.28;;;12.40;99.90;;;;;;5096945;28;20265;-75
2022/05/19 04:08:22;;;;;;;4.70;3.50;;;12.40;99.90;;;;;;5094965;28;20202;-75
2022/05/19 04:10:48;;;;;;;4.78;3.03;;;12.50;99.90;;;;;;5095312;28;20292;-75
2022/05/19 04:13:14;;;;;;;3.92;3.00;;;12.50;99.90;;;;;;5085847;28;20171;-75
2022/05/19 04:15:40;;;;;;;3.40;3.10;;;12.50;99.90;;;;;;5074738;28;20191;-76
2022/05/19 04:18:06;;;;;;;7.03;3.40;;;12.50;99.90;;;;;;5074721;28;20199;-77
2022/05/19 04:20:32;;;;;;;3.65;3.35;;;12.60;99.90;;;;;;5074625;28;20187;-77
2022/05/19 04:22:59;;;;;;;3.28;3.08;;;12.60;99.90;;;;;;5093034;28;20182;-76
2022/05/19 04:25:25;;;;;;;5.55;3.85;;;12.70;99.90;;;;;;5095007;28;20167;-76
2022/05/19 04:27:51;;;;;;;4.18;3.65;;;12.80;99.90;;;;;;5092229;28;20731;-75
2022/05/19 04:30:17;;;;;;;3.45;3.15;;;12.80;99.90;;;;;;5086536;28;20232;-75
2022/05/19 04:32:43;;;;;;;4.40;3.60;;;12.90;99.90;;;;;;5094456;28;20547;-76
2022/05/19 04:35:10;;;;;;;9.75;4.45;;;12.90;99.90;;;;;;5094778;28;20178;-76
2022/05/19 04:37:36;;;;;;;11.57;5.00;;;12.90;99.90;;;;;;5082433;28;20199;-76
2022/05/19 04:40:04;;;;;;;10.38;4.82;;;13.00;99.90;;;;;;5091285;28;20194;-77
2022/05/19 04:42:29;;;;;;;8.48;4.15;;;13.00;99.90;;;;;;5094132;28;20202;-76
2022/05/19 04:44:56;;;;;;;6.25;3.63;;;13.10;99.90;;;;;;5094283;28;20645;-77
2022/05/19 04:47:22;;;;;;;6.55;3.55;;;13.10;99.90;;;;;;5090143;28;20265;-76
2022/05/19 04:49:48;;;;;;;4.13;3.50;;;13.20;99.90;;;;;;5094467;28;20546;-76
2022/05/19 04:52:13;;;;;;;5.05;3.88;;;13.20;99.90;;;;;;5097105;28;20232;-77
2022/05/19 04:54:39;;;;;;;5.40;3.50;;;13.30;99.90;;;;;;5085952;28;20273;-77
2022/05/19 04:57:05;;;;;;;3.83;3.45;;;13.40;99.90;;;;;;5086378;28;20171;-75
2022/05/19 04:59:32;;;;;;;3.45;3.15;;;13.50;99.90;;;;;;5091167;28;20577;-75
2022/05/19 05:01:58;;;;;;;5.15;3.53;;;13.60;99.90;;;;;;5094419;28;20179;-83
2022/05/19 05:04:26;;;;;;;4.53;4.00;;;13.70;99.90;;;;;;5104435;28;20262;-78
2022/05/19 05:06:52;;;;;;;4.03;3.70;;;13.80;99.90;;;;;;5091532;28;20183;-76
2022/05/19 05:09:18;;;;;;;4.03;3.63;;;13.90;99.90;;;;;;5096483;28;20210;-75
2022/05/19 05:11:43;;;;;;;5.10;4.10;;;13.90;99.90;;;;;;5100131;28;20685;-75
2022/05/19 05:14:10;;;;;;;7.65;4.25;;;14.00;99.90;;;;;;5099546;28;20181;-75
2022/05/19 05:16:35;;;;;;;4.10;3.70;;;14.10;99.90;;;;;;5103915;28;20232;-75
2022/05/19 05:19:01;;;;;;;4.25;3.85;;;14.20;99.90;;;;;;5101164;28;20704;-75
2022/05/19 05:21:27;;;;;;;3.67;3.42;;;14.30;99.90;;;;;;5088293;28;20585;-76
2022/05/19 05:23:52;;;;;;;3.70;3.40;;;14.40;99.90;;;;;;5090728;28;20178;-76
2022/05/19 05:26:18;;;;;;;10.80;4.00;;;14.50;99.90;;;;;;5091169;28;20660;-75
2022/05/19 05:28:43;;;;;;;4.22;3.45;;;14.60;99.90;;;;;;5091368;28;20225;-77
2022/05/19 05:31:09;;;;;;;4.85;3.40;;;14.70;99.90;;;;;;5075036;28;20297;-76
2022/05/19 05:33:35;;;;;;;5.47;3.50;;;14.80;99.90;;;;;;5073525;28;20190;-75
2022/05/19 05:36:00;;;;;;;6.18;4.15;;;14.90;99.90;;;;;;5089542;28;20209;-74
2022/05/19 05:38:26;;;;;;;3.90;3.60;;;15.00;99.90;;;;;;5093946;28;20190;-77
2022/05/19 05:40:53;;;;;;;3.83;3.42;;;15.10;99.90;;;;;;5092003;28;20186;-76
2022/05/19 05:43:20;;;;;;;3.72;3.42;;;15.20;99.90;;;;;;5092650;28;20170;-77
2022/05/19 05:45:47;;;;;;;5.85;4.07;;;15.30;99.90;;;;;;5093734;28;20239;-74
2022/05/19 05:48:13;;;;;;;6.55;4.40;;;15.40;99.90;;;;;;5092206;28;20676;-75
2022/05/19 05:50:39;;;;;;;7.70;4.00;;;15.60;99.90;;;;;;5079242;28;20749;-75
2022/05/19 05:53:06;;;;;;;5.72;4.20;;;15.70;99.90;;;;;;5092494;28;20623;-75
2022/05/19 05:55:33;;;;;;;6.50;3.88;;;15.70;99.90;;;;;;5085609;28;20171;-75
2022/05/19 05:57:59;;;;;;;4.18;2.90;;;15.90;99.90;;;;;;5074916;28;20794;-75
2022/05/19 06:00:25;;;;;;;6.18;3.38;;;16.00;99.90;;;;;;5090413;28;20275;-75
2022/05/19 06:02:51;;;;;;;8.90;4.13;;;16.10;99.90;;;;;;5092252;28;20301;-74
2022/05/19 06:05:17;;;;;;;4.63;2.78;;;16.20;99.90;;;;;;5087502;28;20258;-75
2022/05/19 06:07:43;;;;;;;4.13;2.85;;;16.40;99.90;;;;;;5089658;28;20198;-76
2022/05/19 06:10:11;;;;;;;6.57;2.92;;;16.50;99.90;;;;;;5091813;28;20198;-76
2022/05/19 06:12:38;;;;;;;4.97;3.10;;;16.60;99.90;;;;;;5089426;28;20182;-77
2022/05/19 06:15:04;;;;;;;3.80;2.72;;;16.70;99.90;;;;;;5092795;28;20186;-81
2022/05/19 06:17:30;;;;;;;3.78;2.53;;;16.80;99.90;;;;;;5089149;28;20177;-78
2022/05/19 06:19:56;;;;;;;2.40;2.20;;;17.00;99.90;;;;;;5074333;28;20177;-75
2022/05/19 06:22:22;;;;;;;2.60;2.40;;;17.10;99.90;;;;;;5091906;28;20265;-75
2022/05/19 06:24:49;;;;;;;2.63;2.33;;;17.10;99.90;;;;;;5092941;28;20179;-78
2022/05/19 06:27:15;;;;;;;4.03;2.15;;;17.30;99.90;;;;;;5082529;28;20184;-82
2022/05/19 06:29:41;;;;;;;2.10;2.00;;;17.40;99.90;;;;;;5092198;28;20210;-74
2022/05/19 06:32:09;;;;;;;5.85;2.30;;;17.50;99.90;;;;;;5092311;28;20251;-75
2022/05/19 06:34:35;;;;;;;4.78;2.15;;;17.60;99.90;;;;;;5092027;28;20177;-75
2022/05/19 06:37:02;;;;;;;2.95;2.05;;;17.70;99.90;;;;;;5090400;28;20202;-74
2022/05/19 06:39:28;;;;;;;1.67;1.58;;;17.80;99.90;;;;;;5091396;28;20777;-73
2022/05/19 06:42:00;;;;;;;1.95;1.85;;;17.90;99.90;;;;;;5091498;28;20269;-73
2022/05/19 06:44:29;;;;;;;4.85;2.33;;;17.90;99.90;;;;;;5089304;28;20189;-76
2022/05/19 06:46:54;;;;;;;4.18;2.05;;;18.10;99.90;;;;;;5090189;28;20239;-74
2022/05/19 06:49:20;;;;;;;2.45;1.90;;;18.10;99.90;;;;;;5086515;28;20222;-74
2022/05/19 06:51:46;;;;;;;3.13;2.20;;;18.20;99.90;;;;;;5085012;28;20277;-76
2022/05/19 06:54:11;;;;;;;2.88;1.95;;;18.30;99.90;;;;;;5083033;28;20178;-74
2022/05/19 06:56:37;;;;;;;3.55;2.00;;;18.40;99.90;;;;;;5090874;28;20178;-74
2022/05/19 06:59:04;;;;;;;2.05;1.95;;;18.50;99.90;;;;;;5083300;28;20194;-75
2022/05/19 07:01:30;;;;;;;3.88;2.10;;;18.60;99.90;;;;;;5091757;28;20166;-75
2022/05/19 07:03:57;;;;;;;2.67;2.47;;;18.70;99.90;;;;;;5091225;28;20181;-75
2022/05/19 07:06:23;;;;;;;3.38;2.30;;;18.80;99.90;;;;;;5091069;28;20171;-75
2022/05/19 07:08:48;;;;;;;6.28;2.45;;;18.90;99.10;;;;;;5090454;28;20202;-74
2022/05/19 07:11:26;;;;;;;3.95;2.10;;;18.90;98.10;;;;;;5091406;28;20209;-74
2022/05/19 07:13:58;;;;;;;2.13;1.92;;;19.00;97.50;;;;;;5092147;28;20307;-74
2022/05/19 07:16:24;;;;;;;4.60;2.13;;;19.10;97.50;;;;;;5081340;28;20187;-74
2022/05/19 07:18:50;;;;;;;2.65;2.20;;;19.20;96.50;;;;;;5076196;28;20288;-74
2022/05/19 07:21:18;;;;;;;3.05;2.05;;;19.20;96.10;;;;;;5079795;28;20178;-74
2022/05/19 07:23:46;;;;;;;3.40;1.70;;;19.20;95.90;;;;;;5093482;28;20174;-74
2022/05/19 07:26:12;;;;;;;3.15;1.88;;;19.20;96.40;;;;;;5089184;28;20192;-74
2022/05/19 07:28:37;;;;;;;5.35;2.05;;;19.30;96.90;;;;;;5093960;28;20300;-74
2022/05/19 07:31:03;;;;;;;1.92;1.83;;;19.30;95.50;;;;;;5094992;28;20205;-74
2022/05/19 07:33:29;;;;;;;4.47;1.98;;;19.30;96.10;;;;;;5095397;28;20158;-74
2022/05/19 07:35:55;;;;;;;2.60;2.40;;;19.40;95.90;;;;;;5095434;28;20661;-74
2022/05/19 07:38:21;;;;;;;2.42;2.03;;;19.50;95.50;;;;;;5090812;28;20203;-76
2022/05/19 07:40:49;;;;;;;2.13;2.03;;;19.60;95.90;;;;;;5095755;28;20797;-77
2022/05/19 07:45:59;;;;;;;2.28;1.90;;;19.80;96.60;;;;;;5084030;28;20240;-75
2022/05/19 07:48:25;;;;;;;2.53;2.00;;;19.90;95.90;;;;;;5074970;28;20199;-76
2022/05/19 07:50:50;;;;;;;2.17;2.00;;;20.00;96.20;;;;;;5084971;28;20202;-75
2022/05/19 07:53:16;;;;;;;2.05;1.95;;;20.10;96.80;;;;;;5092068;28;20186;-76
2022/05/19 07:55:42;;;;;;;1.90;1.80;;;20.20;95.10;;;;;;5094786;28;20568;-76
2022/05/19 07:58:07;;;;;;;3.15;1.80;;;20.30;93.80;;;;;;5094527;28;20243;-76
2022/05/19 08:00:33;;;;;;;2.00;1.90;;;20.40;94.90;;;;;;5094232;28;20657;-75
2022/05/19 08:02:59;;;;;;;6.10;1.98;;;20.50;94.70;;;;;;5091865;28;20529;-75
2022/05/19 08:05:25;;;;;;;5.30;2.40;;;20.60;94.50;;;;;;5094481;28;20186;-75
2022/05/19 08:07:50;;;;;;;5.65;2.10;;;20.60;93.30;;;;;;5094969;28;20678;-75
2022/05/19 08:10:25;;;;;;;1.83;1.73;;;20.70;94.50;;;;;;5093739;28;20195;-75
2022/05/19 08:15:39;;;;;;;3.28;2.53;;;20.80;95.90;;;;;;5094977;28;20182;-75
2022/05/19 08:18:09;;;;;;;3.92;2.25;;;21.00;95.20;;;;;;5095226;28;20206;-75
2022/05/19 08:20:39;;;;;;;2.45;1.80;;;21.10;94.90;;;;;;5091703;28;20175;-75
2022/05/19 08:23:10;;;;;;;4.63;2.15;;;21.30;94.60;;;;;;5094362;28;20167;-75
2022/05/19 08:25:35;;;;;;;2.38;2.00;;;21.40;94.10;;;;;;5091534;28;20189;-76
2022/05/19 08:28:01;;;;;;;3.90;2.30;;;21.50;93.40;;;;;;5085945;28;20211;-76
2022/05/19 08:30:27;;;;;;;2.45;1.75;;;21.60;93.10;;;;;;5080987;28;20210;-75
2022/05/19 08:32:53;;;;;;;2.35;1.92;;;21.60;93.00;;;;;;5091417;28;20179;-75
2022/05/19 08:35:20;;;;;;;3.33;2.22;;;21.70;92.20;;;;;;5091796;28;20182;-77
2022/05/19 08:37:46;;;;;;;2.85;2.22;;;21.70;92.60;;;;;;5088248;28;20195;-75
2022/05/19 08:40:12;;;;;;;3.28;1.90;;;21.80;93.10;;;;;;5094012;28;20175;-74
2022/05/19 08:42:44;;;;;;;2.20;2.00;;;21.90;92.30;;;;;;5093595;28;20224;-76
2022/05/19 08:45:35;;;;;;;2.97;1.92;;;22.00;91.30;;;;;;5091309;28;20205;-74
2022/05/19 08:48:06;;;;;;;2.15;2.05;;;22.10;92.90;;;;;;5088462;28;20200;-76
2022/05/19 08:50:57;;;;;;;2.05;1.95;;;22.20;92.00;;;;;;5090288;28;20256;-76
2022/05/19 08:53:26;;;;;;;2.30;2.10;;;22.30;90.40;;;;;;5066198;28;20194;-74
2022/05/19 08:56:00;;;;;;;2.10;1.90;;;22.30;92.40;;;;;;5074216;28;20220;-78
2022/05/19 08:59:01;;;;;;;4.68;2.45;;;22.40;91.70;;;;;;5074631;28;20552;-77
2022/05/19 09:01:45;;;;;;;6.40;2.03;;;22.50;91.80;;;;;;5046137;28;20206;-75
2022/05/19 09:04:26;;;;;;;3.58;2.10;;;22.60;90.20;;;;;;5089635;28;20277;-75
2022/05/19 09:10:14;;;;;;;2.13;1.90;;;22.90;90.60;;;;;;5084039;28;20454;-76
2022/05/19 09:12:42;;;;;;;4.25;2.10;;;23.10;90.90;;;;;;5088057;28;20175;-74
2022/05/19 09:15:10;;;;;;;3.50;1.60;;;23.20;88.10;;;;;;5093062;28;20201;-76
2022/05/19 09:17:40;;;;;;;2.83;2.30;;;23.40;86.30;;;;;;5082653;28;20203;-76
2022/05/19 09:20:12;;;;;;;4.13;2.20;;;23.40;88.50;;;;;;5083610;28;20186;-75
2022/05/19 09:22:39;;;;;;;5.38;2.38;;;23.60;82.90;;;;;;5092724;28;20200;-76
2022/05/19 09:25:09;;;;;;;3.75;1.98;;;23.70;85.80;;;;;;5087939;28;20200;-76
2022/05/19 09:27:41;;;;;;;2.80;1.80;;;24.60;89.70;;;;;;5087400;28;20219;-75
2022/05/19 09:30:16;;;;;;;1.63;1.52;;;26.90;80.50;;;;;;5090692;28;20602;-73
2022/05/19 09:32:51;;;;;;;2.67;1.90;;;29.50;68.20;;;;;;5089093;28;20220;-73
2022/05/19 09:35:30;;;;;;;1.88;1.77;;;31.30;62.30;;;;;;5091340;28;20171;-73
2022/05/19 09:38:16;;;;;;;3.83;1.67;;;33.00;56.20;;;;;;5092423;28;20286;-71
2022/05/19 09:40:46;;;;;;;2.10;1.88;;;33.90;51.80;;;;;;5087186;28;20224;-72
2022/05/19 09:43:17;;;;;;;1.92;1.73;;;35.00;50.90;;;;;;5090030;28;20178;-72
2022/05/19 09:45:49;;;;;;;1.70;1.60;;;36.40;47.90;;;;;;5091115;28;20649;-72
2022/05/19 09:48:19;;;;;;;4.53;1.63;;;36.90;45.30;;;;;;5091932;28;20198;-71
2022/05/19 09:50:50;;;;;;;1.75;1.60;;;37.50;43.10;;;;;;5091204;28;20216;-73
2022/05/19 09:53:23;;;;;;;3.15;1.80;;;38.10;42.20;;;;;;5074893;28;20684;-73
2022/05/19 09:56:11;;;;;;;1.60;1.50;;;38.70;42.70;;;;;;5072507;28;20163;-73
2022/05/19 09:58:42;;;;;;;2.80;1.45;;;38.20;41.80;;;;;;5072314;28;20277;-73
2022/05/19 10:01:19;;;;;;;2.33;1.50;;;38.60;40.80;;;;;;5071960;28;20182;-72
2022/05/19 10:03:51;;;;;;;3.38;1.77;;;39.20;40.40;;;;;;5071864;28;20308;-73
2022/05/19 10:06:20;;;;;;;1.83;1.67;;;39.50;40.30;;;;;;5090590;28;20264;-74
2022/05/19 10:08:46;;;;;;;1.52;1.30;;;39.80;40.40;;;;;;5088645;28;20631;-73
2022/05/19 10:11:18;;;;;;;2.30;1.67;;;40.00;38.90;;;;;;5089550;28;20213;-73
2022/05/19 10:13:48;;;;;;;3.60;1.60;;;39.50;38.60;;;;;;5091076;28;20174;-72
2022/05/19 10:16:35;;;;;;;3.83;1.60;;;40.00;40.00;;;;;;5096300;28;20180;-72
2022/05/19 10:19:37;;;;;;;2.78;1.80;;;40.50;38.80;;;;;;5099002;28;20695;-72
2022/05/19 10:22:36;;;;;;;2.72;1.27;;;40.70;38.60;;;;;;5085147;28;20181;-72
2022/05/19 10:25:32;;;;;;;1.48;1.38;;;40.40;38.50;;;;;;5088582;28;20175;-73
2022/05/19 10:31:37;;;;;;;2.50;1.65;;;41.30;37.90;;;;;;5085480;28;20223;-72
2022/05/19 10:34:30;;;;;;;1.90;1.80;;;42.10;36.50;;;;;;5083501;28;20194;-72
2022/05/19 10:37:17;;;;;;;1.60;1.50;;;41.60;36.30;;;;;;5084916;28;20202;-74
2022/05/19 10:40:04;;;;;;;2.22;1.95;;;41.50;37.80;;;;;;5085952;28;20645;-72
2022/05/19 10:42:47;;;;;;;2.67;2.00;;;41.90;36.80;;;;;;5089313;28;20185;-73
2022/05/19 10:45:42;;;;;;;2.08;1.95;;;42.20;35.60;;;;;;5090766;28;20718;-71
2022/05/19 10:48:35;;;;;;;5.97;2.13;;;42.10;35.30;;;;;;5077165;28;20210;-73
2022/05/19 10:51:27;;;;;;;2.55;1.95;;;41.90;36.30;;;;;;5089246;28;20674;-72
2022/05/19 10:54:04;;;;;;;2.38;1.80;;;42.00;35.40;;;;;;5087186;28;20257;-72
2022/05/19 10:56:34;;;;;;;3.58;1.95;;;42.50;35.80;;;;;;5089568;28;20173;-73
2022/05/19 10:59:16;;;;;;;2.47;1.70;;;42.30;35.80;;;;;;5095162;28;20230;-74
2022/05/19 11:01:54;;;;;;;2.05;1.67;;;42.00;36.40;;;;;;5095191;28;20177;-73
2022/05/19 11:04:58;;;;;;;2.47;1.90;;;42.40;37.30;;;;;;5089357;28;20664;-74
2022/05/19 11:07:37;;;;;;;2.83;1.65;;;41.70;36.90;;;;;;5074923;28;20203;-73
2022/05/19 11:10:24;;;;;;;1.90;1.75;;;41.30;37.10;;;;;;5088649;28;20259;-72
2022/05/19 11:13:04;;;;;;;1.67;1.40;;;41.00;39.00;;;;;;5079981;28;20174;-73
2022/05/19 11:15:50;;;;;;;3.22;1.88;;;42.30;36.30;;;;;;5084603;28;20181;-71
2022/05/19 11:18:28;;;;;;;1.80;1.70;;;42.40;37.80;;;;;;5087855;28;20190;-73
2022/05/19 11:21:13;;;;;;;3.65;1.77;;;43.00;35.70;;;;;;5089971;28;20263;-71
2022/05/19 11:23:50;;;;;;;2.13;1.60;;;42.20;37.10;;;;;;5093220;28;20185;-73
2022/05/19 11:26:26;;;;;;;3.65;1.67;;;42.60;36.60;;;;;;5087640;28;20181;-70
2022/05/19 11:29:36;;;;;;;3.08;1.50;;;41.90;36.90;;;;;;5090444;28;20672;-71
2022/05/19 11:32:22;;;;;;;2.13;1.92;;;42.40;36.60;;;;;;5081298;28;20182;-71
2022/05/19 11:34:55;;;;;;;1.67;1.58;;;42.80;36.70;;;;;;5086586;28;20182;-71
2022/05/19 11:38:03;;;;;;;3.42;1.65;;;42.60;36.40;;;;;;5092868;28;20174;-72
2022/05/19 11:40:49;;;;;;;5.28;1.80;;;42.90;36.70;;;;;;5065374;28;20676;-70
2022/05/19 11:43:33;;;;;;;2.03;1.60;;;42.70;35.60;;;;;;5079719;28;20182;-72
2022/05/19 11:46:14;;;;;;;3.63;1.70;;;43.20;35.90;;;;;;5074871;28;20534;-72
2022/05/19 11:58:04;;;;;;;2.38;1.90;;;42.20;35.90;;;;;;5075049;28;20192;-72
2022/05/19 12:00:36;;;;;;;1.98;1.70;;;41.50;36.80;;;;;;5071385;28;20202;-72
2022/05/19 12:03:02;;;;;;;1.73;1.63;;;41.10;37.90;;;;;;5074177;28;20171;-72
2022/05/19 12:05:43;;;;;;;2.15;1.55;;;41.10;37.20;;;;;;5074466;28;20171;-72
2022/05/19 12:08:23;;;;;;;1.63;1.52;;;41.70;36.40;;;;;;5074197;28;20222;-73
2022/05/19 12:11:12;;;;;;;2.83;1.70;;;42.40;35.90;;;;;;5073255;28;20198;-73
2022/05/19 12:13:39;;;;;;;1.63;1.60;;;42.70;35.60;;;;;;5067661;28;20297;-71
2022/05/19 12:16:11;;;;;;;1.77;1.67;;;42.60;36.40;;;;;;5073960;28;20532;-71
2022/05/19 12:18:43;;;;;;;1.60;1.33;;;42.00;36.20;;;;;;5074094;28;20195;-73
2022/05/19 12:21:23;;;;;;;1.70;1.60;;;42.30;36.90;;;;;;5072723;28;20182;-73
2022/05/19 12:23:49;;;;;;;1.80;1.60;;;41.50;36.70;;;;;;5072620;28;20174;-73
2022/05/19 12:26:21;;;;;;;4.00;1.60;;;41.80;36.70;;;;;;5073902;28;20178;-73
2022/05/19 12:29:10;;;;;;;1.98;1.88;;;41.80;36.70;;;;;;5073918;28;20264;-73
2022/05/19 12:34:46;;;;;;;1.52;1.27;;;41.10;37.60;;;;;;5073794;28;20275;-71
2022/05/19 12:37:35;;;;;;;1.77;1.52;;;41.50;37.20;;;;;;5073930;28;20170;-71
2022/05/19 12:40:22;;;;;;;3.80;1.60;;;42.40;36.30;;;;;;5073750;28;20217;-72
2022/05/19 12:42:49;;;;;;;2.15;1.45;;;43.00;36.10;;;;;;5073320;28;20228;-72
2022/05/19 12:45:15;;;;;;;2.05;1.58;;;44.40;34.40;;;;;;5074096;28;20637;-73
2022/05/19 12:47:59;;;;;;;2.75;1.30;;;45.40;34.50;;;;;;5074067;28;20212;-73
2022/05/19 12:50:48;;;;;;;1.58;1.45;;;46.70;33.30;;;;;;5073235;28;20206;-73
2022/05/19 12:53:22;;;;;;;1.80;1.70;;;47.20;32.10;;;;;;5073402;28;20209;-73
2022/05/19 12:55:53;;;;;;;3.10;1.20;;;47.80;32.20;;;;;;5073922;28;20166;-73
2022/05/19 12:58:34;;;;;;;2.38;1.50;;;48.40;32.20;;;;;;5073362;28;20557;-72
2022/05/19 13:01:24;;;;;;;1.80;1.52;;;50.10;30.90;;;;;;5073160;28;20237;-73
2022/05/19 13:04:25;;;;;;;2.92;1.50;;;50.70;30.10;;;;;;5073375;28;20287;-74
2022/05/19 13:07:03;;;;;;;3.72;1.60;;;52.30;29.90;;;;;;5073152;28;20174;-74
2022/05/19 13:09:31;;;;;;;3.58;1.38;;;53.20;28.90;;;;;;5073075;28;20206;-73
2022/05/19 13:12:05;;;;;;;6.90;1.90;;;53.20;29.10;;;;;;5072997;28;20664;-73
2022/05/19 13:14:42;;;;;;;3.65;1.42;;;54.00;28.90;;;;;;5073188;28;20231;-74
2022/05/19 13:17:16;;;;;;;1.38;1.27;;;54.70;28.30;;;;;;5098905;28;20539;-73
2022/05/19 13:19:43;;;;;;;2.85;1.50;;;55.30;27.50;;;;;;5073122;28;20673;-72
2022/05/19 13:22:19;;;;;;;7.90;2.45;;;55.20;27.30;;;;;;5072450;28;20179;-73
2022/05/19 13:24:46;;;;;;;4.43;1.92;;;54.80;27.70;;;;;;5072996;28;20618;-73
2022/05/19 13:30:43;;;;;;;2.13;1.20;;;54.60;27.50;;;;;;5073058;28;20568;-73
2022/05/19 13:33:40;;;;;;;1.23;1.02;;;55.60;27.50;;;;;;5072608;28;20168;-73
2022/05/19 13:36:09;;;;;;;1.80;1.20;;;57.20;26.80;;;;;;5069288;28;20190;-73